Weather at James A Haley Veterans Hospital Heliport [CLOSED]

Public forecast

Using degrees Fahrenheit for public forecast. Weather courtesy of forecast.io.

Closest aviation weather report (METAR) to James A Haley Veterans Hospital Heliport

Report is more than 6 hours old.

Closest report is Tampa Executive Airport, 5.3 nm (9.9 km) ESE.

2022/11/14 15:35 (retrieved 2 years ago)

KVDF 141535Z AUTO 06004KT 10SM SCT034 23/17 A3012 RMK AO2

Closest aviation forecast (TAF) to James A Haley Veterans Hospital Heliport

Forecast is more than 12 hours old.

Closest forecast is Tampa International Airport, 7.6 nm (14.1 km) SW.

2023/02/22 18:33 (retrieved 1 year ago)

TAF KTPA 221731Z 2218/2324 20012KT P6SM FEW030 FM230100 18005KT P6SM FEW080 SCT250 FM230900 17004KT 6SM BR SCT030 SCT200 FM231400 17006KT P6SM SCT250 FM231800 20009KT P6SM FEW250